createdAt,value
2023-02-13T00:01:28.483Z,16.60
2023-02-13T00:03:58.352Z,17.80
2023-02-13T00:06:26.975Z,18.80
2023-02-13T00:08:55.411Z,16.03
2023-02-13T00:11:23.830Z,18.30
2023-02-13T00:13:52.204Z,15.20
2023-02-13T00:16:20.686Z,15.60
2023-02-13T00:18:49.013Z,16.13
2023-02-13T00:21:18.691Z,17.77
2023-02-13T00:23:47.137Z,17.63
2023-02-13T00:26:18.397Z,17.20
2023-02-13T00:28:47.656Z,17.93
2023-02-13T00:31:18.571Z,17.57
2023-02-13T00:33:47.107Z,18.60
2023-02-13T00:36:19.326Z,15.73
2023-02-13T00:38:48.687Z,16.47
2023-02-13T00:41:18.242Z,16.50
2023-02-13T00:43:47.078Z,17.70
2023-02-13T00:46:16.191Z,16.57
2023-02-13T00:48:45.022Z,16.33
2023-02-13T00:51:13.433Z,15.47
2023-02-13T00:53:43.201Z,17.70
2023-02-13T00:56:11.702Z,15.37
2023-02-13T00:58:42.089Z,17.73
2023-02-13T01:01:10.565Z,18.30
2023-02-13T01:03:39.064Z,16.70
2023-02-13T01:06:08.628Z,17.53
2023-02-13T01:08:40.126Z,17.17
2023-02-13T01:11:10.286Z,17.07
2023-02-13T01:13:38.951Z,17.23
2023-02-13T01:16:08.198Z,15.17
2023-02-13T01:18:36.615Z,16.87
2023-02-13T01:21:08.429Z,16.70
2023-02-13T01:23:38.999Z,15.77
2023-02-13T01:26:12.308Z,18.33
2023-02-13T01:28:40.675Z,16.50
2023-02-13T01:31:09.080Z,17.00
2023-02-13T01:33:37.547Z,18.47
2023-02-13T01:36:11.461Z,17.10
2023-02-13T01:38:40.147Z,18.97
2023-02-13T01:41:10.507Z,15.23
2023-02-13T01:43:49.486Z,15.20
2023-02-13T01:46:24.395Z,17.77
2023-02-13T01:48:56.457Z,17.20
2023-02-13T01:51:31.672Z,17.97
2023-02-13T01:54:03.981Z,17.50
2023-02-13T01:56:38.995Z,17.27
2023-02-13T01:59:11.568Z,16.60
2023-02-13T02:01:40.653Z,15.90
2023-02-13T02:04:13.909Z,17.63
2023-02-13T02:06:47.513Z,15.87
2023-02-13T02:09:28.915Z,16.23
2023-02-13T02:12:06.982Z,17.10
2023-02-13T02:14:38.876Z,16.93
2023-02-13T02:17:09.572Z,15.90
2023-02-13T02:19:48.441Z,17.00
2023-02-13T02:23:18.520Z,16.03
2023-02-13T02:26:38.406Z,17.37
2023-02-13T02:29:29.830Z,17.93
2023-02-13T02:32:28.256Z,16.47
2023-02-13T02:35:11.064Z,17.10
2023-02-13T02:37:58.086Z,18.10
2023-02-13T02:40:37.373Z,18.10
2023-02-13T02:43:30.492Z,18.37
2023-02-13T02:46:13.014Z,17.30
2023-02-13T02:49:09.348Z,18.07
2023-02-13T02:51:48.815Z,17.10
2023-02-13T02:54:45.494Z,16.50
2023-02-13T02:57:19.165Z,17.43
2023-02-13T03:00:14.297Z,17.33
2023-02-13T03:03:00.137Z,17.43
2023-02-13T03:05:50.331Z,17.70
2023-02-13T03:08:39.893Z,17.10
2023-02-13T03:11:25.986Z,17.30
2023-02-13T03:13:55.723Z,17.20
2023-02-13T03:16:44.343Z,20.03
2023-02-13T03:19:36.947Z,17.33
2023-02-13T03:22:20.796Z,17.93
2023-02-13T03:25:01.533Z,18.00
2023-02-13T03:27:57.804Z,18.20
2023-02-13T03:30:41.866Z,18.90
2023-02-13T03:33:32.067Z,16.90
2023-02-13T03:36:27.885Z,18.37
2023-02-13T03:39:03.927Z,17.03
2023-02-13T03:41:39.778Z,18.90
2023-02-13T03:44:17.671Z,18.20
2023-02-13T03:46:50.945Z,17.20
2023-02-13T03:49:43.316Z,20.13
2023-02-13T03:52:20.477Z,18.17
2023-02-13T03:55:13.121Z,19.30
2023-02-13T03:58:01.851Z,18.40
2023-02-13T04:00:35.588Z,18.47
2023-02-13T04:03:14.103Z,20.60
2023-02-13T04:05:46.605Z,20.80
2023-02-13T04:08:15.409Z,20.03
2023-02-13T04:10:53.012Z,18.30
2023-02-13T04:13:31.313Z,18.47
2023-02-13T04:16:08.376Z,20.60
2023-02-13T04:18:39.854Z,19.13
2023-02-13T04:21:09.630Z,17.20
2023-02-13T04:23:38.340Z,18.03
2023-02-13T04:26:16.014Z,17.50
2023-02-13T04:28:44.501Z,19.60
2023-02-13T04:31:13.480Z,19.50
2023-02-13T04:33:42.229Z,18.13
2023-02-13T04:36:10.992Z,18.93
2023-02-13T04:38:39.398Z,18.60
2023-02-13T04:41:09.102Z,18.10
2023-02-13T04:43:37.604Z,19.13
2023-02-13T04:46:06.696Z,18.23
2023-02-13T04:48:36.215Z,17.57
2023-02-13T04:51:05.954Z,19.63
2023-02-13T04:53:34.437Z,18.47
2023-02-13T04:56:02.851Z,19.23
2023-02-13T04:58:32.641Z,19.70
2023-02-13T05:01:01.016Z,18.57
2023-02-13T05:03:29.545Z,18.20
2023-02-13T05:05:57.847Z,19.00
2023-02-13T05:08:26.187Z,18.67
2023-02-13T05:10:54.500Z,20.27
2023-02-13T05:13:22.869Z,19.50
2023-02-13T05:15:53.601Z,18.07
2023-02-13T05:18:22.284Z,21.30
2023-02-13T05:21:10.693Z,18.20
2023-02-13T05:23:38.414Z,20.67
2023-02-13T05:26:06.722Z,18.57
2023-02-13T05:28:52.692Z,18.67
2023-02-13T05:31:22.503Z,18.40
2023-02-13T05:33:50.980Z,19.33
2023-02-13T05:36:19.420Z,19.80
2023-02-13T05:38:47.963Z,18.80
2023-02-13T05:41:16.375Z,19.53
2023-02-13T05:43:44.701Z,20.07
2023-02-13T05:46:13.860Z,20.07
2023-02-13T05:48:43.798Z,23.27
2023-02-13T05:51:12.478Z,21.20
2023-02-13T05:53:40.813Z,21.17
2023-02-13T05:56:09.498Z,21.00
2023-02-13T05:58:38.394Z,20.30
2023-02-13T06:01:07.100Z,20.87
2023-02-13T06:03:35.501Z,21.50
2023-02-13T06:06:06.036Z,20.10
2023-02-13T06:08:34.485Z,20.80
2023-02-13T06:11:03.177Z,21.73
2023-02-13T06:13:32.463Z,20.60
2023-02-13T06:16:00.783Z,19.47
2023-02-13T06:18:29.140Z,19.97
2023-02-13T06:20:57.826Z,20.47
2023-02-13T06:23:28.129Z,18.10
2023-02-13T06:25:56.588Z,20.70
2023-02-13T06:28:25.052Z,20.47
2023-02-13T06:30:53.564Z,19.73
2023-02-13T06:33:21.946Z,20.33
2023-02-13T06:35:50.286Z,22.70
2023-02-13T06:38:19.192Z,19.23
2023-02-13T06:40:49.824Z,20.47
2023-02-13T06:43:19.113Z,21.17
2023-02-13T06:45:48.102Z,20.27
2023-02-13T06:48:16.591Z,22.40
2023-02-13T06:50:44.981Z,19.50
2023-02-13T06:53:13.348Z,21.00
2023-02-13T06:55:41.774Z,21.20
2023-02-13T06:58:11.552Z,23.10
2023-02-13T07:00:39.935Z,22.93
2023-02-13T07:03:12.695Z,20.67
2023-02-13T07:05:41.814Z,20.73
2023-02-13T07:08:10.948Z,22.00
2023-02-13T07:10:39.702Z,22.30
2023-02-13T07:13:11.748Z,23.00
2023-02-13T07:15:40.324Z,20.93
2023-02-13T07:18:08.950Z,20.13
2023-02-13T07:20:37.424Z,20.70
2023-02-13T07:23:07.218Z,21.40
2023-02-13T07:25:35.982Z,20.83
2023-02-13T07:28:06.215Z,21.43
2023-02-13T07:30:36.488Z,21.13
2023-02-13T07:33:06.575Z,21.50
2023-02-13T07:35:36.250Z,22.07
2023-02-13T07:38:05.085Z,22.97
2023-02-13T07:40:33.560Z,21.70
2023-02-13T07:43:02.781Z,24.57
2023-02-13T07:45:31.304Z,22.40
2023-02-13T07:48:01.117Z,23.10
2023-02-13T07:50:30.161Z,22.17
2023-02-13T07:52:59.932Z,22.60
2023-02-13T07:55:28.916Z,22.57
2023-02-13T07:57:57.992Z,23.83
2023-02-13T08:00:26.684Z,22.57
2023-02-13T08:02:55.029Z,23.23
2023-02-13T08:05:24.819Z,25.97
2023-02-13T08:07:53.969Z,24.00
2023-02-13T08:10:40.231Z,22.00
2023-02-13T08:13:10.320Z,22.30
2023-02-13T08:15:38.691Z,22.43
2023-02-13T08:18:07.278Z,22.90
2023-02-13T08:20:37.203Z,22.80
2023-02-13T08:23:07.488Z,21.60
2023-02-13T08:25:36.135Z,20.97
2023-02-13T08:28:04.573Z,22.60
2023-02-13T08:30:33.474Z,23.40
2023-02-13T08:33:01.892Z,25.30
2023-02-13T08:35:31.656Z,22.37
2023-02-13T08:38:05.459Z,23.43
2023-02-13T08:40:34.257Z,22.10
2023-02-13T08:43:03.251Z,25.93
2023-02-13T08:45:32.880Z,24.50
2023-02-13T08:48:04.100Z,24.17
2023-02-13T08:50:33.211Z,27.97
2023-02-13T08:53:03.685Z,25.37
2023-02-13T08:55:32.276Z,24.70
2023-02-13T08:58:02.937Z,26.07
2023-02-13T09:00:32.017Z,28.00
2023-02-13T09:03:03.386Z,28.40
2023-02-13T09:05:32.645Z,28.50
2023-02-13T09:08:04.810Z,27.83
2023-02-13T09:10:33.957Z,29.70
2023-02-13T09:13:02.477Z,28.27
2023-02-13T09:15:31.383Z,28.80
2023-02-13T09:17:59.797Z,29.17
2023-02-13T09:20:28.347Z,27.60
2023-02-13T09:22:57.871Z,27.40
2023-02-13T09:25:28.245Z,28.30
2023-02-13T09:27:56.770Z,27.10
2023-02-13T09:30:25.195Z,27.07
2023-02-13T09:32:54.928Z,27.10
2023-02-13T09:35:24.690Z,29.40
2023-02-13T09:37:55.102Z,28.37
2023-02-13T09:40:32.119Z,27.30
2023-02-13T09:43:13.942Z,27.40
2023-02-13T09:45:44.493Z,27.03
2023-02-13T09:48:26.148Z,28.20
2023-02-13T09:50:54.524Z,28.10
2023-02-13T09:53:26.168Z,28.60
2023-02-13T09:56:09.810Z,28.17
2023-02-13T09:58:47.085Z,28.60
2023-02-13T10:01:29.681Z,25.73
2023-02-13T10:04:22.937Z,25.73
2023-02-13T10:07:07.979Z,21.20
2023-02-13T10:09:47.121Z,24.57
2023-02-13T10:12:45.795Z,21.57
2023-02-13T10:15:25.848Z,20.23
2023-02-13T10:18:00.717Z,22.13
2023-02-13T10:20:37.082Z,19.67
2023-02-13T10:23:22.309Z,18.13
2023-02-13T10:25:57.464Z,17.77
2023-02-13T10:28:38.775Z,18.60
2023-02-13T10:31:11.580Z,17.27
2023-02-13T10:33:47.705Z,15.30
2023-02-13T10:36:22.210Z,15.47
2023-02-13T10:38:59.082Z,16.40
2023-02-13T10:41:45.461Z,16.27
2023-02-13T10:44:35.236Z,16.57
2023-02-13T10:47:19.759Z,15.50
2023-02-13T10:50:14.098Z,15.27
2023-02-13T10:52:53.259Z,15.00
2023-02-13T10:56:00.545Z,14.20
2023-02-13T10:58:42.217Z,14.40
2023-02-13T11:01:21.919Z,14.53
2023-02-13T11:04:03.305Z,14.50
2023-02-13T11:06:31.923Z,14.90
2023-02-13T11:09:00.643Z,14.20
2023-02-13T11:11:35.117Z,12.90
2023-02-13T11:14:14.665Z,13.40
2023-02-13T11:16:55.733Z,12.83
2023-02-13T11:19:30.748Z,12.97
2023-02-13T11:22:04.149Z,13.57
2023-02-13T11:24:33.784Z,13.00
2023-02-13T11:27:09.448Z,13.03
2023-02-13T11:29:39.132Z,13.77
2023-02-13T11:32:24.736Z,12.80
2023-02-13T11:34:54.842Z,12.23
2023-02-13T11:37:27.624Z,11.00
2023-02-13T11:39:58.019Z,12.27
2023-02-13T11:42:31.603Z,11.67
2023-02-13T11:45:04.018Z,11.70
2023-02-13T11:47:41.340Z,11.27
2023-02-13T11:50:25.986Z,10.17
2023-02-13T11:52:59.083Z,9.80
2023-02-13T11:55:32.985Z,9.77
2023-02-13T11:58:04.654Z,10.57
2023-02-13T12:00:41.678Z,10.70
2023-02-13T12:03:30.484Z,10.67
2023-02-13T12:06:05.584Z,11.50
2023-02-13T12:08:37.289Z,12.30
2023-02-13T12:11:23.635Z,13.47
2023-02-13T12:13:53.237Z,12.47
2023-02-13T12:16:34.144Z,13.33
2023-02-13T12:19:13.166Z,13.10
2023-02-13T12:22:01.003Z,12.30
2023-02-13T12:24:55.751Z,12.10
2023-02-13T12:27:37.080Z,12.40
2023-02-13T12:30:44.473Z,13.90
2023-02-13T12:33:37.106Z,12.30
2023-02-13T12:36:17.967Z,19.17
2023-02-13T12:39:05.003Z,13.40
2023-02-13T12:41:44.118Z,12.53
2023-02-13T12:45:03.819Z,13.33
2023-02-13T12:47:38.248Z,12.40
2023-02-13T12:50:33.813Z,12.83
2023-02-13T12:53:32.647Z,13.00
2023-02-13T12:56:18.169Z,12.83
2023-02-13T12:59:04.936Z,11.57
2023-02-13T13:02:00.847Z,10.13
2023-02-13T13:04:49.080Z,10.47
2023-02-13T13:07:41.977Z,11.50
2023-02-13T13:10:46.386Z,10.20
2023-02-13T13:13:27.926Z,9.87
2023-02-13T13:16:04.551Z,9.80
2023-02-13T13:18:48.056Z,10.67
2023-02-13T13:21:32.000Z,11.07
2023-02-13T13:24:14.743Z,11.40
2023-02-13T13:26:49.648Z,10.60
2023-02-13T13:29:24.235Z,9.97
2023-02-13T13:31:57.363Z,10.90
2023-02-13T13:34:28.299Z,10.83
2023-02-13T13:37:04.010Z,10.20
2023-02-13T13:39:45.773Z,9.50
2023-02-13T13:42:21.570Z,11.10
2023-02-13T13:45:20.121Z,10.70
2023-02-13T13:48:08.016Z,9.87
2023-02-13T13:50:41.890Z,9.87
2023-02-13T13:53:14.733Z,8.90
2023-02-13T13:56:05.141Z,10.60
2023-02-13T13:58:45.351Z,9.77
2023-02-13T14:01:34.324Z,10.63
2023-02-13T14:04:05.378Z,8.80
2023-02-13T14:07:17.508Z,9.13
2023-02-13T14:09:46.195Z,10.37
2023-02-13T14:12:46.697Z,10.10
2023-02-13T14:15:53.154Z,10.50
2023-02-13T14:18:23.959Z,10.27
2023-02-13T14:20:55.118Z,10.60
2023-02-13T14:23:49.815Z,9.87
2023-02-13T14:26:41.142Z,9.67
2023-02-13T14:29:31.383Z,9.97
2023-02-13T14:32:23.783Z,9.37
2023-02-13T14:35:00.421Z,9.07
2023-02-13T14:37:39.669Z,9.63
2023-02-13T14:40:33.432Z,9.13
2023-02-13T14:43:35.162Z,8.13
2023-02-13T14:46:35.880Z,10.10
2023-02-13T14:49:16.605Z,9.50
2023-02-13T14:51:50.952Z,9.00
2023-02-13T14:54:28.992Z,8.17
2023-02-13T14:57:10.100Z,9.30
2023-02-13T14:59:43.023Z,9.20
2023-02-13T15:02:23.381Z,9.40
2023-02-13T15:04:59.849Z,8.37
2023-02-13T15:07:32.532Z,9.47
2023-02-13T15:10:04.687Z,8.93
2023-02-13T15:12:35.252Z,9.90
2023-02-13T15:15:23.237Z,10.87
2023-02-13T15:17:51.947Z,11.30
2023-02-13T15:20:27.485Z,11.10
2023-02-13T15:22:58.075Z,10.70
2023-02-13T15:25:34.932Z,10.67
2023-02-13T15:28:06.459Z,10.40
2023-02-13T15:30:37.952Z,10.77
2023-02-13T15:33:18.615Z,12.30
2023-02-13T15:35:55.027Z,12.50
2023-02-13T15:38:28.467Z,11.40
2023-02-13T15:41:01.048Z,11.80
2023-02-13T15:43:36.159Z,13.00
2023-02-13T15:46:09.572Z,11.20
2023-02-13T15:48:38.040Z,11.40
2023-02-13T15:51:08.545Z,10.50
2023-02-13T15:53:36.994Z,11.53
2023-02-13T15:56:06.942Z,12.87
2023-02-13T15:58:36.162Z,11.67
2023-02-13T16:01:08.778Z,11.97
2023-02-13T16:03:38.987Z,11.70
2023-02-13T16:06:14.501Z,11.77
2023-02-13T16:08:52.769Z,10.73
2023-02-13T16:11:31.266Z,10.90
2023-02-13T16:14:18.475Z,11.90
2023-02-13T16:16:53.176Z,10.97
2023-02-13T16:19:29.459Z,11.07
2023-02-13T16:22:04.388Z,10.80
2023-02-13T16:24:33.203Z,9.53
2023-02-13T16:27:02.844Z,10.23
2023-02-13T16:29:31.429Z,10.53
2023-02-13T16:32:19.196Z,10.97
2023-02-13T16:34:47.557Z,10.50
2023-02-13T16:37:31.422Z,10.40
2023-02-13T16:40:38.362Z,9.47
2023-02-13T16:43:51.870Z,9.47
2023-02-13T16:46:36.622Z,11.17
2023-02-13T16:49:18.022Z,10.80
2023-02-13T16:51:51.334Z,10.27
2023-02-13T16:54:32.967Z,11.80
2023-02-13T16:57:05.141Z,11.17
2023-02-13T16:59:55.532Z,12.17
2023-02-13T17:02:27.068Z,11.00
2023-02-13T17:04:59.441Z,11.80
2023-02-13T17:07:30.346Z,10.33
2023-02-13T17:10:03.470Z,10.87
2023-02-13T17:12:39.806Z,10.53
2023-02-13T17:15:13.045Z,11.03
2023-02-13T17:17:41.725Z,10.63
2023-02-13T17:20:17.683Z,11.60
2023-02-13T17:22:48.740Z,16.30
2023-02-13T17:25:22.601Z,15.77
2023-02-13T17:27:52.505Z,14.43
2023-02-13T17:30:23.212Z,12.50
2023-02-13T17:32:56.066Z,11.80
2023-02-13T17:35:24.458Z,11.20
2023-02-13T17:37:53.066Z,11.00
2023-02-13T17:40:25.321Z,11.90
2023-02-13T17:42:55.931Z,11.90
2023-02-13T17:45:27.449Z,11.13
2023-02-13T17:47:57.755Z,12.17
2023-02-13T17:50:27.033Z,11.57
2023-02-13T17:52:55.856Z,11.77
2023-02-13T17:55:29.019Z,13.10
2023-02-13T17:57:59.108Z,12.10
2023-02-13T18:00:31.330Z,10.63
2023-02-13T18:03:01.167Z,12.80
2023-02-13T18:05:31.362Z,12.83
2023-02-13T18:08:00.125Z,11.87
2023-02-13T18:10:33.136Z,11.60
2023-02-13T18:13:04.953Z,12.00
2023-02-13T18:15:33.785Z,12.10
2023-02-13T18:18:02.533Z,12.70
2023-02-13T18:20:31.092Z,11.10
2023-02-13T18:22:59.680Z,14.17
2023-02-13T18:25:29.367Z,12.67
2023-02-13T18:27:57.715Z,14.57
2023-02-13T18:30:26.243Z,13.87
2023-02-13T18:32:58.940Z,14.20
2023-02-13T18:35:27.470Z,15.90
2023-02-13T18:37:55.930Z,13.83
2023-02-13T18:40:24.346Z,15.67
2023-02-13T18:42:54.121Z,14.03
2023-02-13T18:45:22.612Z,14.07
2023-02-13T18:47:50.994Z,12.33
2023-02-13T18:50:19.436Z,12.10
2023-02-13T18:52:47.883Z,13.37
2023-02-13T18:55:16.586Z,13.73
2023-02-13T18:57:45.560Z,13.33
2023-02-13T19:00:17.674Z,12.83
2023-02-13T19:02:47.066Z,13.30
2023-02-13T19:05:15.539Z,13.67
2023-02-13T19:07:43.975Z,13.07
2023-02-13T19:10:14.844Z,14.67
2023-02-13T19:12:43.603Z,15.00
2023-02-13T19:15:12.088Z,13.50
2023-02-13T19:17:41.848Z,15.50
2023-02-13T19:20:12.981Z,14.90
2023-02-13T19:22:42.137Z,16.50
2023-02-13T19:25:10.457Z,16.27
2023-02-13T19:27:39.100Z,16.10
2023-02-13T19:30:10.856Z,16.30
2023-02-13T19:32:39.254Z,17.60
2023-02-13T19:35:09.691Z,18.00
2023-02-13T19:37:43.771Z,18.03
2023-02-13T19:40:14.465Z,20.37
2023-02-13T19:42:42.959Z,18.13
2023-02-13T19:45:11.829Z,20.37
2023-02-13T19:47:40.234Z,19.50
2023-02-13T19:50:12.225Z,20.13
2023-02-13T19:52:40.607Z,18.37
2023-02-13T19:55:09.514Z,19.60
2023-02-13T19:57:37.905Z,17.63
2023-02-13T20:00:09.566Z,18.40
2023-02-13T20:02:41.417Z,22.17
2023-02-13T20:05:11.562Z,17.97
2023-02-13T20:07:39.932Z,21.53
2023-02-13T20:10:10.780Z,18.30
2023-02-13T20:12:39.174Z,18.50
2023-02-13T20:15:08.364Z,19.20
2023-02-13T20:17:38.703Z,18.83
2023-02-13T20:20:10.556Z,19.37
2023-02-13T20:22:39.459Z,18.27
2023-02-13T20:25:08.373Z,19.87
2023-02-13T20:27:42.039Z,19.23
2023-02-13T20:30:14.568Z,21.63
2023-02-13T20:32:44.066Z,20.77
2023-02-13T20:35:13.871Z,21.17
2023-02-13T20:37:42.735Z,21.43
2023-02-13T20:40:12.450Z,22.00
2023-02-13T20:42:40.926Z,20.23
2023-02-13T20:45:10.376Z,19.87
2023-02-13T20:47:40.399Z,19.73
2023-02-13T20:50:10.398Z,19.27
2023-02-13T20:52:40.382Z,19.93
2023-02-13T20:55:09.455Z,21.70
2023-02-13T20:57:38.182Z,21.53
2023-02-13T21:00:09.487Z,20.23
2023-02-13T21:02:37.973Z,20.37
2023-02-13T21:05:07.120Z,20.50
2023-02-13T21:07:35.501Z,20.20
2023-02-13T21:10:06.778Z,19.60
2023-02-13T21:12:35.151Z,20.40
2023-02-13T21:15:03.863Z,20.43
2023-02-13T21:17:32.197Z,20.40
2023-02-13T21:20:00.499Z,21.50
2023-02-13T21:22:29.037Z,20.80
2023-02-13T21:24:57.436Z,21.30
2023-02-13T21:27:28.633Z,22.90
2023-02-13T21:29:57.373Z,20.53
2023-02-13T21:32:25.839Z,21.47
2023-02-13T21:34:56.031Z,21.77
2023-02-13T21:37:24.377Z,20.63
2023-02-13T21:39:52.722Z,21.30
2023-02-13T21:42:21.568Z,20.90
2023-02-13T21:44:51.408Z,23.17
2023-02-13T21:47:19.931Z,20.77
2023-02-13T21:49:49.728Z,20.40
2023-02-13T21:52:18.317Z,20.83
2023-02-13T21:54:47.057Z,19.20
2023-02-13T21:57:15.349Z,21.13
2023-02-13T21:59:43.662Z,21.33
2023-02-13T22:02:13.622Z,19.57
2023-02-13T22:04:42.740Z,18.20
2023-02-13T22:07:11.156Z,19.07
2023-02-13T22:09:39.645Z,17.87
2023-02-13T22:12:08.211Z,17.17
2023-02-13T22:14:36.498Z,18.50
2023-02-13T22:17:04.857Z,19.23
2023-02-13T22:19:34.827Z,20.30
2023-02-13T22:22:03.126Z,21.00
2023-02-13T22:24:32.684Z,19.10
2023-02-13T22:27:01.018Z,18.97
2023-02-13T22:29:29.392Z,19.43
2023-02-13T22:31:57.724Z,17.27
2023-02-13T22:34:26.210Z,18.60
2023-02-13T22:36:55.867Z,18.70
2023-02-13T22:39:24.487Z,18.97
2023-02-13T22:41:56.206Z,17.20
2023-02-13T22:44:24.651Z,18.70
2023-02-13T22:46:53.039Z,19.83
2023-02-13T22:49:21.744Z,19.60
2023-02-13T22:51:50.197Z,19.90
2023-02-13T22:54:19.920Z,18.27
2023-02-13T22:56:48.333Z,19.47
2023-02-13T22:59:16.730Z,19.80
2023-02-13T23:01:45.139Z,20.47
2023-02-13T23:04:14.682Z,19.90
2023-02-13T23:06:43.397Z,18.93
2023-02-13T23:09:12.236Z,20.57
2023-02-13T23:11:59.706Z,20.17
2023-02-13T23:14:28.050Z,20.20
2023-02-13T23:17:13.889Z,21.67
2023-02-13T23:19:42.314Z,19.03
2023-02-13T23:22:13.454Z,20.47
2023-02-13T23:24:41.831Z,19.33
2023-02-13T23:27:12.906Z,21.90
2023-02-13T23:29:41.395Z,21.53
2023-02-13T23:32:09.925Z,21.10
2023-02-13T23:34:38.566Z,21.40
2023-02-13T23:37:06.929Z,19.40
2023-02-13T23:39:35.238Z,21.20
2023-02-13T23:42:03.626Z,20.93
2023-02-13T23:44:33.316Z,21.03
2023-02-13T23:47:01.638Z,20.70
2023-02-13T23:49:30.037Z,19.67
2023-02-13T23:51:59.759Z,16.40
2023-02-13T23:54:28.325Z,19.13
2023-02-13T23:56:58.886Z,18.77
2023-02-13T23:59:27.518Z,18.37
